sensor_id;sensor_type;location;lat;lon;timestamp;P1;durP1;ratioP1;P2;durP2;ratioP2
21245;SDS011;10781;50.928;4.440;2023-05-10T00:00:38;14.18;;;7.60;;
21245;SDS011;10781;50.928;4.440;2023-05-10T00:03:04;11.57;;;7.18;;
21245;SDS011;10781;50.928;4.440;2023-05-10T00:05:30;13.43;;;6.97;;
21245;SDS011;10781;50.928;4.440;2023-05-10T00:07:56;11.60;;;7.57;;
21245;SDS011;10781;50.928;4.440;2023-05-10T00:10:22;15.38;;;7.88;;
21245;SDS011;10781;50.928;4.440;2023-05-10T00:12:48;14.15;;;7.55;;
21245;SDS011;10781;50.928;4.440;2023-05-10T00:15:13;16.60;;;8.18;;
21245;SDS011;10781;50.928;4.440;2023-05-10T00:17:39;12.23;;;7.75;;
21245;SDS011;10781;50.928;4.440;2023-05-10T00:20:05;14.93;;;7.95;;
21245;SDS011;10781;50.928;4.440;2023-05-10T00:22:31;16.85;;;8.98;;
21245;SDS011;10781;50.928;4.440;2023-05-10T00:24:57;16.58;;;9.32;;
21245;SDS011;10781;50.928;4.440;2023-05-10T00:27:23;18.00;;;9.57;;
21245;SDS011;10781;50.928;4.440;2023-05-10T00:29:49;17.42;;;9.82;;
21245;SDS011;10781;50.928;4.440;2023-05-10T00:32:14;17.52;;;9.63;;
21245;SDS011;10781;50.928;4.440;2023-05-10T00:34:41;18.80;;;9.93;;
21245;SDS011;10781;50.928;4.440;2023-05-10T00:37:06;19.15;;;9.93;;
21245;SDS011;10781;50.928;4.440;2023-05-10T00:39:32;17.80;;;10.10;;
21245;SDS011;10781;50.928;4.440;2023-05-10T00:41:58;16.17;;;9.30;;
21245;SDS011;10781;50.928;4.440;2023-05-10T00:44:25;14.40;;;8.95;;
21245;SDS011;10781;50.928;4.440;2023-05-10T00:46:50;17.00;;;9.73;;
21245;SDS011;10781;50.928;4.440;2023-05-10T00:49:16;16.90;;;9.50;;
21245;SDS011;10781;50.928;4.440;2023-05-10T00:51:42;18.10;;;9.88;;
21245;SDS011;10781;50.928;4.440;2023-05-10T00:54:13;16.02;;;9.50;;
21245;SDS011;10781;50.928;4.440;2023-05-10T00:56:40;15.07;;;9.80;;
21245;SDS011;10781;50.928;4.440;2023-05-10T00:59:06;15.10;;;9.32;;
21245;SDS011;10781;50.928;4.440;2023-05-10T01:01:36;13.77;;;9.30;;
21245;SDS011;10781;50.928;4.440;2023-05-10T01:04:02;20.77;;;10.32;;
21245;SDS011;10781;50.928;4.440;2023-05-10T01:06:29;16.55;;;9.75;;
21245;SDS011;10781;50.928;4.440;2023-05-10T01:08:54;18.77;;;9.80;;
21245;SDS011;10781;50.928;4.440;2023-05-10T01:11:21;15.95;;;9.98;;
21245;SDS011;10781;50.928;4.440;2023-05-10T01:13:47;16.95;;;10.15;;
21245;SDS011;10781;50.928;4.440;2023-05-10T01:16:20;18.67;;;10.45;;
21245;SDS011;10781;50.928;4.440;2023-05-10T01:18:45;16.83;;;10.05;;
21245;SDS011;10781;50.928;4.440;2023-05-10T01:27:02;17.17;;;10.32;;
21245;SDS011;10781;50.928;4.440;2023-05-10T01:43:26;19.30;;;11.20;;
21245;SDS011;10781;50.928;4.440;2023-05-10T01:46:02;18.73;;;10.98;;
21245;SDS011;10781;50.928;4.440;2023-05-10T01:48:46;19.55;;;11.60;;
21245;SDS011;10781;50.928;4.440;2023-05-10T01:51:17;20.23;;;12.13;;
21245;SDS011;10781;50.928;4.440;2023-05-10T01:53:48;19.75;;;11.52;;
21245;SDS011;10781;50.928;4.440;2023-05-10T01:56:16;18.10;;;11.80;;
21245;SDS011;10781;50.928;4.440;2023-05-10T01:58:44;20.70;;;11.52;;
21245;SDS011;10781;50.928;4.440;2023-05-10T02:01:13;22.05;;;11.85;;
21245;SDS011;10781;50.928;4.440;2023-05-10T02:03:40;17.90;;;11.77;;
21245;SDS011;10781;50.928;4.440;2023-05-10T02:06:07;21.73;;;11.98;;
21245;SDS011;10781;50.928;4.440;2023-05-10T02:08:35;22.08;;;11.77;;
21245;SDS011;10781;50.928;4.440;2023-05-10T02:11:02;18.48;;;11.77;;
21245;SDS011;10781;50.928;4.440;2023-05-10T02:13:29;21.65;;;12.60;;
21245;SDS011;10781;50.928;4.440;2023-05-10T02:15:57;19.17;;;12.15;;
21245;SDS011;10781;50.928;4.440;2023-05-10T02:18:24;21.02;;;11.95;;
21245;SDS011;10781;50.928;4.440;2023-05-10T02:20:51;19.05;;;12.13;;
21245;SDS011;10781;50.928;4.440;2023-05-10T02:23:20;19.98;;;11.85;;
21245;SDS011;10781;50.928;4.440;2023-05-10T02:25:47;20.30;;;11.20;;
21245;SDS011;10781;50.928;4.440;2023-05-10T02:28:14;20.38;;;12.05;;
21245;SDS011;10781;50.928;4.440;2023-05-10T02:30:42;19.83;;;11.68;;
21245;SDS011;10781;50.928;4.440;2023-05-10T02:33:08;18.73;;;11.50;;
21245;SDS011;10781;50.928;4.440;2023-05-10T02:35:35;19.48;;;11.98;;
21245;SDS011;10781;50.928;4.440;2023-05-10T02:38:03;18.70;;;11.73;;
21245;SDS011;10781;50.928;4.440;2023-05-10T02:40:30;18.77;;;11.55;;
21245;SDS011;10781;50.928;4.440;2023-05-10T02:42:57;19.40;;;12.18;;
21245;SDS011;10781;50.928;4.440;2023-05-10T02:45:27;19.58;;;11.20;;
21245;SDS011;10781;50.928;4.440;2023-05-10T02:47:55;18.80;;;11.43;;
21245;SDS011;10781;50.928;4.440;2023-05-10T02:50:21;19.90;;;11.75;;
21245;SDS011;10781;50.928;4.440;2023-05-10T02:52:50;20.73;;;11.80;;
21245;SDS011;10781;50.928;4.440;2023-05-10T02:55:17;19.75;;;12.15;;
21245;SDS011;10781;50.928;4.440;2023-05-10T02:57:57;18.85;;;12.00;;
21245;SDS011;10781;50.928;4.440;2023-05-10T03:00:25;19.45;;;12.35;;
21245;SDS011;10781;50.928;4.440;2023-05-10T03:02:51;20.73;;;11.77;;
21245;SDS011;10781;50.928;4.440;2023-05-10T03:05:17;20.05;;;11.05;;
21245;SDS011;10781;50.928;4.440;2023-05-10T03:07:43;22.35;;;11.85;;
21245;SDS011;10781;50.928;4.440;2023-05-10T03:10:10;19.33;;;11.48;;
21245;SDS011;10781;50.928;4.440;2023-05-10T03:19:22;18.33;;;11.27;;
21245;SDS011;10781;50.928;4.440;2023-05-10T03:21:33;20.50;;;10.68;;
21245;SDS011;10781;50.928;4.440;2023-05-10T03:24:05;20.90;;;12.05;;
21245;SDS011;10781;50.928;4.440;2023-05-10T03:26:32;17.73;;;10.82;;
21245;SDS011;10781;50.928;4.440;2023-05-10T03:28:59;17.95;;;11.73;;
21245;SDS011;10781;50.928;4.440;2023-05-10T03:31:25;17.45;;;11.50;;
21245;SDS011;10781;50.928;4.440;2023-05-10T03:33:51;19.02;;;12.50;;
21245;SDS011;10781;50.928;4.440;2023-05-10T03:36:18;23.08;;;12.63;;
21245;SDS011;10781;50.928;4.440;2023-05-10T03:38:44;22.10;;;13.15;;
21245;SDS011;10781;50.928;4.440;2023-05-10T03:41:10;23.63;;;13.45;;
21245;SDS011;10781;50.928;4.440;2023-05-10T03:43:36;24.27;;;13.90;;
21245;SDS011;10781;50.928;4.440;2023-05-10T03:46:05;22.88;;;13.82;;
21245;SDS011;10781;50.928;4.440;2023-05-10T03:48:31;26.75;;;15.52;;
21245;SDS011;10781;50.928;4.440;2023-05-10T03:50:57;23.95;;;14.40;;
21245;SDS011;10781;50.928;4.440;2023-05-10T03:53:23;27.73;;;15.55;;
21245;SDS011;10781;50.928;4.440;2023-05-10T03:55:49;29.42;;;16.15;;
21245;SDS011;10781;50.928;4.440;2023-05-10T03:58:15;28.92;;;16.20;;
21245;SDS011;10781;50.928;4.440;2023-05-10T04:00:41;28.70;;;15.63;;
21245;SDS011;10781;50.928;4.440;2023-05-10T04:03:09;29.70;;;16.45;;
21245;SDS011;10781;50.928;4.440;2023-05-10T04:05:36;31.40;;;16.35;;
21245;SDS011;10781;50.928;4.440;2023-05-10T04:08:02;29.08;;;16.17;;
21245;SDS011;10781;50.928;4.440;2023-05-10T04:10:28;31.05;;;16.92;;
21245;SDS011;10781;50.928;4.440;2023-05-10T04:12:53;28.38;;;16.25;;
21245;SDS011;10781;50.928;4.440;2023-05-10T04:15:19;31.40;;;16.58;;
21245;SDS011;10781;50.928;4.440;2023-05-10T04:17:45;30.00;;;15.98;;
21245;SDS011;10781;50.928;4.440;2023-05-10T04:20:11;31.05;;;16.88;;
21245;SDS011;10781;50.928;4.440;2023-05-10T04:22:37;34.17;;;17.52;;
21245;SDS011;10781;50.928;4.440;2023-05-10T04:25:03;31.00;;;18.35;;
21245;SDS011;10781;50.928;4.440;2023-05-10T04:27:30;32.30;;;17.67;;
21245;SDS011;10781;50.928;4.440;2023-05-10T04:29:56;35.67;;;18.40;;
21245;SDS011;10781;50.928;4.440;2023-05-10T04:32:21;34.15;;;18.05;;
21245;SDS011;10781;50.928;4.440;2023-05-10T04:34:47;31.75;;;17.15;;
21245;SDS011;10781;50.928;4.440;2023-05-10T04:37:13;33.75;;;18.35;;
21245;SDS011;10781;50.928;4.440;2023-05-10T04:39:39;34.92;;;18.50;;
21245;SDS011;10781;50.928;4.440;2023-05-10T04:42:05;36.78;;;17.85;;
21245;SDS011;10781;50.928;4.440;2023-05-10T04:44:31;33.95;;;18.92;;
21245;SDS011;10781;50.928;4.440;2023-05-10T04:46:57;33.85;;;18.05;;
21245;SDS011;10781;50.928;4.440;2023-05-10T04:49:23;40.28;;;18.80;;
21245;SDS011;10781;50.928;4.440;2023-05-10T04:51:48;36.38;;;18.50;;
21245;SDS011;10781;50.928;4.440;2023-05-10T04:54:14;37.55;;;18.85;;
21245;SDS011;10781;50.928;4.440;2023-05-10T04:56:40;34.55;;;17.65;;
21245;SDS011;10781;50.928;4.440;2023-05-10T04:59:06;35.03;;;18.20;;
21245;SDS011;10781;50.928;4.440;2023-05-10T05:01:32;33.15;;;18.73;;
21245;SDS011;10781;50.928;4.440;2023-05-10T05:03:58;37.33;;;18.98;;
21245;SDS011;10781;50.928;4.440;2023-05-10T05:06:24;34.97;;;18.77;;
21245;SDS011;10781;50.928;4.440;2023-05-10T05:08:50;37.05;;;18.60;;
21245;SDS011;10781;50.928;4.440;2023-05-10T05:11:16;32.85;;;18.52;;
21245;SDS011;10781;50.928;4.440;2023-05-10T05:13:42;33.17;;;18.45;;
21245;SDS011;10781;50.928;4.440;2023-05-10T05:16:08;40.42;;;19.95;;
21245;SDS011;10781;50.928;4.440;2023-05-10T05:18:35;37.08;;;19.05;;
21245;SDS011;10781;50.928;4.440;2023-05-10T05:21:01;34.90;;;18.45;;
21245;SDS011;10781;50.928;4.440;2023-05-10T05:23:27;34.08;;;18.58;;
21245;SDS011;10781;50.928;4.440;2023-05-10T05:25:52;34.70;;;18.05;;
21245;SDS011;10781;50.928;4.440;2023-05-10T05:28:19;32.10;;;17.52;;
21245;SDS011;10781;50.928;4.440;2023-05-10T05:30:45;31.15;;;17.45;;
21245;SDS011;10781;50.928;4.440;2023-05-10T05:33:13;32.95;;;17.63;;
21245;SDS011;10781;50.928;4.440;2023-05-10T05:35:40;30.58;;;17.52;;
21245;SDS011;10781;50.928;4.440;2023-05-10T05:38:07;32.70;;;16.90;;
21245;SDS011;10781;50.928;4.440;2023-05-10T05:40:33;31.42;;;17.25;;
21245;SDS011;10781;50.928;4.440;2023-05-10T05:42:59;30.70;;;16.45;;
21245;SDS011;10781;50.928;4.440;2023-05-10T05:45:24;30.63;;;17.45;;
21245;SDS011;10781;50.928;4.440;2023-05-10T05:47:50;29.15;;;15.93;;
21245;SDS011;10781;50.928;4.440;2023-05-10T05:50:16;24.55;;;15.02;;
21245;SDS011;10781;50.928;4.440;2023-05-10T05:52:42;30.98;;;15.80;;
21245;SDS011;10781;50.928;4.440;2023-05-10T05:55:08;24.95;;;15.73;;
21245;SDS011;10781;50.928;4.440;2023-05-10T05:57:33;27.45;;;15.43;;
21245;SDS011;10781;50.928;4.440;2023-05-10T05:59:59;29.90;;;16.65;;
21245;SDS011;10781;50.928;4.440;2023-05-10T06:02:25;29.50;;;16.65;;
21245;SDS011;10781;50.928;4.440;2023-05-10T06:04:50;31.77;;;16.10;;
21245;SDS011;10781;50.928;4.440;2023-05-10T06:07:16;27.85;;;16.98;;
21245;SDS011;10781;50.928;4.440;2023-05-10T06:09:42;25.95;;;15.30;;
21245;SDS011;10781;50.928;4.440;2023-05-10T06:12:07;26.63;;;16.63;;
21245;SDS011;10781;50.928;4.440;2023-05-10T06:14:33;27.05;;;16.80;;
21245;SDS011;10781;50.928;4.440;2023-05-10T06:16:58;28.90;;;15.75;;
21245;SDS011;10781;50.928;4.440;2023-05-10T06:19:25;25.30;;;14.80;;
21245;SDS011;10781;50.928;4.440;2023-05-10T06:21:51;24.85;;;15.20;;
21245;SDS011;10781;50.928;4.440;2023-05-10T06:24:17;22.90;;;14.98;;
21245;SDS011;10781;50.928;4.440;2023-05-10T06:26:42;22.85;;;14.35;;
21245;SDS011;10781;50.928;4.440;2023-05-10T06:29:08;22.38;;;13.77;;
21245;SDS011;10781;50.928;4.440;2023-05-10T06:31:34;24.27;;;15.15;;
21245;SDS011;10781;50.928;4.440;2023-05-10T06:33:59;25.95;;;15.18;;
21245;SDS011;10781;50.928;4.440;2023-05-10T06:36:25;28.08;;;16.92;;
21245;SDS011;10781;50.928;4.440;2023-05-10T06:38:52;28.90;;;16.77;;
21245;SDS011;10781;50.928;4.440;2023-05-10T06:41:18;26.23;;;16.58;;
21245;SDS011;10781;50.928;4.440;2023-05-10T06:43:44;24.52;;;17.00;;
21245;SDS011;10781;50.928;4.440;2023-05-10T06:46:09;22.83;;;16.15;;
21245;SDS011;10781;50.928;4.440;2023-05-10T06:48:35;25.00;;;16.35;;
21245;SDS011;10781;50.928;4.440;2023-05-10T06:51:01;23.75;;;16.63;;
21245;SDS011;10781;50.928;4.440;2023-05-10T06:53:27;25.17;;;16.38;;
21245;SDS011;10781;50.928;4.440;2023-05-10T06:55:52;24.67;;;16.33;;
21245;SDS011;10781;50.928;4.440;2023-05-10T06:58:18;25.27;;;15.25;;
21245;SDS011;10781;50.928;4.440;2023-05-10T07:00:43;22.23;;;15.73;;
21245;SDS011;10781;50.928;4.440;2023-05-10T07:03:10;27.55;;;16.48;;
21245;SDS011;10781;50.928;4.440;2023-05-10T07:05:36;26.55;;;16.38;;
21245;SDS011;10781;50.928;4.440;2023-05-10T07:08:01;29.25;;;16.50;;
21245;SDS011;10781;50.928;4.440;2023-05-10T07:10:27;23.92;;;16.05;;
21245;SDS011;10781;50.928;4.440;2023-05-10T07:12:53;27.02;;;15.43;;
21245;SDS011;10781;50.928;4.440;2023-05-10T07:15:19;21.40;;;15.20;;
21245;SDS011;10781;50.928;4.440;2023-05-10T07:17:44;25.67;;;15.70;;
21245;SDS011;10781;50.928;4.440;2023-05-10T07:20:10;26.45;;;15.95;;
21245;SDS011;10781;50.928;4.440;2023-05-10T07:22:36;27.92;;;15.85;;
21245;SDS011;10781;50.928;4.440;2023-05-10T07:25:02;22.58;;;15.05;;
21245;SDS011;10781;50.928;4.440;2023-05-10T07:27:28;24.40;;;15.30;;
21245;SDS011;10781;50.928;4.440;2023-05-10T07:29:53;25.50;;;15.05;;
21245;SDS011;10781;50.928;4.440;2023-05-10T07:32:19;25.27;;;16.15;;
21245;SDS011;10781;50.928;4.440;2023-05-10T07:34:46;25.83;;;14.90;;
21245;SDS011;10781;50.928;4.440;2023-05-10T07:37:12;27.95;;;16.13;;
21245;SDS011;10781;50.928;4.440;2023-05-10T07:39:37;28.90;;;15.95;;
21245;SDS011;10781;50.928;4.440;2023-05-10T07:42:03;29.80;;;16.90;;
21245;SDS011;10781;50.928;4.440;2023-05-10T07:44:29;26.40;;;16.10;;
21245;SDS011;10781;50.928;4.440;2023-05-10T07:46:55;25.95;;;15.50;;
21245;SDS011;10781;50.928;4.440;2023-05-10T07:49:20;23.95;;;15.18;;
21245;SDS011;10781;50.928;4.440;2023-05-10T07:51:46;27.45;;;15.70;;
21245;SDS011;10781;50.928;4.440;2023-05-10T07:54:13;25.52;;;14.40;;
21245;SDS011;10781;50.928;4.440;2023-05-10T07:56:40;22.75;;;13.75;;
21245;SDS011;10781;50.928;4.440;2023-05-10T07:59:14;23.02;;;13.35;;
21245;SDS011;10781;50.928;4.440;2023-05-10T08:01:40;22.00;;;13.52;;
21245;SDS011;10781;50.928;4.440;2023-05-10T08:04:06;19.98;;;13.05;;
21245;SDS011;10781;50.928;4.440;2023-05-10T08:06:32;26.60;;;13.52;;
21245;SDS011;10781;50.928;4.440;2023-05-10T08:08:57;26.13;;;13.25;;
21245;SDS011;10781;50.928;4.440;2023-05-10T08:11:23;23.05;;;12.48;;
21245;SDS011;10781;50.928;4.440;2023-05-10T08:13:49;21.02;;;11.98;;
21245;SDS011;10781;50.928;4.440;2023-05-10T08:16:16;20.23;;;11.40;;
21245;SDS011;10781;50.928;4.440;2023-05-10T08:18:42;15.70;;;10.75;;
21245;SDS011;10781;50.928;4.440;2023-05-10T08:21:09;18.65;;;10.35;;
21245;SDS011;10781;50.928;4.440;2023-05-10T08:23:36;16.15;;;8.75;;
21245;SDS011;10781;50.928;4.440;2023-05-10T08:26:02;18.35;;;9.23;;
21245;SDS011;10781;50.928;4.440;2023-05-10T08:28:27;19.60;;;9.05;;
21245;SDS011;10781;50.928;4.440;2023-05-10T08:30:53;16.27;;;8.93;;
21245;SDS011;10781;50.928;4.440;2023-05-10T08:33:19;15.63;;;8.98;;
21245;SDS011;10781;50.928;4.440;2023-05-10T08:35:45;15.13;;;9.05;;
21245;SDS011;10781;50.928;4.440;2023-05-10T08:38:10;15.95;;;8.68;;
21245;SDS011;10781;50.928;4.440;2023-05-10T08:40:37;15.23;;;8.13;;
21245;SDS011;10781;50.928;4.440;2023-05-10T08:43:05;15.25;;;8.98;;
21245;SDS011;10781;50.928;4.440;2023-05-10T08:45:33;15.23;;;8.80;;
21245;SDS011;10781;50.928;4.440;2023-05-10T08:48:10;14.30;;;8.52;;
21245;SDS011;10781;50.928;4.440;2023-05-10T08:50:38;15.77;;;8.30;;
21245;SDS011;10781;50.928;4.440;2023-05-10T08:53:06;13.15;;;8.35;;
21245;SDS011;10781;50.928;4.440;2023-05-10T08:55:36;12.50;;;8.23;;
21245;SDS011;10781;50.928;4.440;2023-05-10T08:58:04;15.35;;;7.80;;
21245;SDS011;10781;50.928;4.440;2023-05-10T09:00:30;13.48;;;8.35;;
21245;SDS011;10781;50.928;4.440;2023-05-10T09:02:57;11.93;;;7.22;;
21245;SDS011;10781;50.928;4.440;2023-05-10T09:05:24;10.30;;;7.22;;
21245;SDS011;10781;50.928;4.440;2023-05-10T09:07:50;14.65;;;7.63;;
21245;SDS011;10781;50.928;4.440;2023-05-10T09:10:15;11.25;;;7.22;;
21245;SDS011;10781;50.928;4.440;2023-05-10T09:12:41;14.10;;;7.30;;
21245;SDS011;10781;50.928;4.440;2023-05-10T09:15:10;11.75;;;7.00;;
21245;SDS011;10781;50.928;4.440;2023-05-10T09:17:36;10.18;;;6.90;;
21245;SDS011;10781;50.928;4.440;2023-05-10T09:20:04;13.25;;;8.43;;
21245;SDS011;10781;50.928;4.440;2023-05-10T09:22:31;11.70;;;7.35;;
21245;SDS011;10781;50.928;4.440;2023-05-10T09:25:30;13.20;;;7.47;;
21245;SDS011;10781;50.928;4.440;2023-05-10T09:27:49;12.23;;;7.65;;
21245;SDS011;10781;50.928;4.440;2023-05-10T09:30:15;12.05;;;8.05;;
21245;SDS011;10781;50.928;4.440;2023-05-10T09:32:43;10.88;;;7.38;;
21245;SDS011;10781;50.928;4.440;2023-05-10T09:35:11;9.73;;;7.53;;
21245;SDS011;10781;50.928;4.440;2023-05-10T09:37:42;11.02;;;7.07;;
21245;SDS011;10781;50.928;4.440;2023-05-10T09:40:12;11.02;;;6.88;;
21245;SDS011;10781;50.928;4.440;2023-05-10T09:42:50;12.43;;;7.10;;
21245;SDS011;10781;50.928;4.440;2023-05-10T09:45:16;10.63;;;6.43;;
21245;SDS011;10781;50.928;4.440;2023-05-10T09:47:41;9.73;;;6.05;;
21245;SDS011;10781;50.928;4.440;2023-05-10T09:50:07;9.75;;;6.55;;
21245;SDS011;10781;50.928;4.440;2023-05-10T09:52:53;9.18;;;6.20;;
21245;SDS011;10781;50.928;4.440;2023-05-10T09:55:22;10.50;;;6.60;;
21245;SDS011;10781;50.928;4.440;2023-05-10T09:57:58;8.73;;;6.40;;
21245;SDS011;10781;50.928;4.440;2023-05-10T10:00:26;11.02;;;6.65;;
21245;SDS011;10781;50.928;4.440;2023-05-10T10:02:56;6.70;;;5.60;;
21245;SDS011;10781;50.928;4.440;2023-05-10T10:07:56;8.93;;;5.88;;
21245;SDS011;10781;50.928;4.440;2023-05-10T10:10:24;8.57;;;6.22;;
21245;SDS011;10781;50.928;4.440;2023-05-10T10:12:51;8.57;;;6.22;;
21245;SDS011;10781;50.928;4.440;2023-05-10T10:15:16;9.35;;;6.15;;
21245;SDS011;10781;50.928;4.440;2023-05-10T10:17:43;9.65;;;5.95;;
21245;SDS011;10781;50.928;4.440;2023-05-10T10:20:09;9.13;;;6.05;;
21245;SDS011;10781;50.928;4.440;2023-05-10T10:22:36;8.63;;;6.00;;
21245;SDS011;10781;50.928;4.440;2023-05-10T10:25:02;8.43;;;5.25;;
21245;SDS011;10781;50.928;4.440;2023-05-10T10:27:35;7.97;;;5.95;;
21245;SDS011;10781;50.928;4.440;2023-05-10T10:30:06;7.53;;;5.13;;
21245;SDS011;10781;50.928;4.440;2023-05-10T10:35:27;9.00;;;5.93;;
21245;SDS011;10781;50.928;4.440;2023-05-10T10:37:54;8.55;;;6.00;;
21245;SDS011;10781;50.928;4.440;2023-05-10T10:40:23;9.00;;;5.60;;
21245;SDS011;10781;50.928;4.440;2023-05-10T10:42:54;7.95;;;5.57;;
21245;SDS011;10781;50.928;4.440;2023-05-10T10:45:20;11.18;;;5.82;;
21245;SDS011;10781;50.928;4.440;2023-05-10T10:47:47;9.32;;;5.85;;
21245;SDS011;10781;50.928;4.440;2023-05-10T10:50:13;8.38;;;5.78;;
21245;SDS011;10781;50.928;4.440;2023-05-10T10:52:41;8.38;;;5.43;;
21245;SDS011;10781;50.928;4.440;2023-05-10T10:55:14;6.55;;;5.22;;
21245;SDS011;10781;50.928;4.440;2023-05-10T10:57:50;8.55;;;6.00;;
21245;SDS011;10781;50.928;4.440;2023-05-10T11:03:05;7.43;;;5.75;;
21245;SDS011;10781;50.928;4.440;2023-05-10T11:05:42;8.00;;;5.55;;
21245;SDS011;10781;50.928;4.440;2023-05-10T11:13:28;8.23;;;6.20;;
21245;SDS011;10781;50.928;4.440;2023-05-10T11:15:59;8.70;;;6.43;;
21245;SDS011;10781;50.928;4.440;2023-05-10T11:19:02;8.93;;;6.45;;
21245;SDS011;10781;50.928;4.440;2023-05-10T11:21:29;7.47;;;5.57;;
21245;SDS011;10781;50.928;4.440;2023-05-10T11:23:56;8.73;;;5.93;;
21245;SDS011;10781;50.928;4.440;2023-05-10T11:26:24;7.50;;;6.00;;
21245;SDS011;10781;50.928;4.440;2023-05-10T11:28:52;9.00;;;6.10;;
21245;SDS011;10781;50.928;4.440;2023-05-10T11:31:23;7.32;;;5.47;;
21245;SDS011;10781;50.928;4.440;2023-05-10T11:33:53;7.10;;;5.22;;
21245;SDS011;10781;50.928;4.440;2023-05-10T11:36:21;8.80;;;5.28;;
21245;SDS011;10781;50.928;4.440;2023-05-10T11:39:00;7.63;;;5.70;;
21245;SDS011;10781;50.928;4.440;2023-05-10T11:41:27;7.00;;;5.03;;
21245;SDS011;10781;50.928;4.440;2023-05-10T11:43:54;7.00;;;5.00;;
21245;SDS011;10781;50.928;4.440;2023-05-10T11:46:21;6.85;;;5.28;;
21245;SDS011;10781;50.928;4.440;2023-05-10T11:48:56;5.00;;;4.10;;
21245;SDS011;10781;50.928;4.440;2023-05-10T11:51:26;6.10;;;4.30;;
21245;SDS011;10781;50.928;4.440;2023-05-10T11:53:53;7.05;;;4.53;;
21245;SDS011;10781;50.928;4.440;2023-05-10T11:56:20;4.35;;;3.88;;
21245;SDS011;10781;50.928;4.440;2023-05-10T11:58:49;7.65;;;5.07;;
21245;SDS011;10781;50.928;4.440;2023-05-10T12:01:21;7.50;;;5.20;;
21245;SDS011;10781;50.928;4.440;2023-05-10T12:03:48;6.50;;;5.25;;
21245;SDS011;10781;50.928;4.440;2023-05-10T12:06:15;7.20;;;4.60;;
21245;SDS011;10781;50.928;4.440;2023-05-10T12:08:45;6.53;;;4.70;;
21245;SDS011;10781;50.928;4.440;2023-05-10T12:11:12;6.15;;;4.85;;
21245;SDS011;10781;50.928;4.440;2023-05-10T12:13:40;6.55;;;5.00;;
21245;SDS011;10781;50.928;4.440;2023-05-10T12:18:42;6.80;;;4.85;;
21245;SDS011;10781;50.928;4.440;2023-05-10T12:21:09;7.07;;;5.28;;
21245;SDS011;10781;50.928;4.440;2023-05-10T12:23:37;6.65;;;5.20;;
21245;SDS011;10781;50.928;4.440;2023-05-10T12:26:03;6.68;;;5.20;;
21245;SDS011;10781;50.928;4.440;2023-05-10T12:28:30;9.55;;;5.45;;
21245;SDS011;10781;50.928;4.440;2023-05-10T12:30:57;7.93;;;5.70;;
21245;SDS011;10781;50.928;4.440;2023-05-10T12:33:24;9.10;;;5.40;;
21245;SDS011;10781;50.928;4.440;2023-05-10T12:35:51;6.10;;;5.15;;
21245;SDS011;10781;50.928;4.440;2023-05-10T12:41:06;7.07;;;5.22;;
21245;SDS011;10781;50.928;4.440;2023-05-10T12:43:32;7.35;;;5.10;;
21245;SDS011;10781;50.928;4.440;2023-05-10T12:46:04;6.05;;;5.30;;
21245;SDS011;10781;50.928;4.440;2023-05-10T12:48:34;9.50;;;5.68;;
21245;SDS011;10781;50.928;4.440;2023-05-10T12:51:01;7.32;;;5.15;;
21245;SDS011;10781;50.928;4.440;2023-05-10T12:53:27;6.75;;;4.90;;
21245;SDS011;10781;50.928;4.440;2023-05-10T12:55:52;5.63;;;4.60;;
21245;SDS011;10781;50.928;4.440;2023-05-10T12:58:18;5.65;;;4.80;;
21245;SDS011;10781;50.928;4.440;2023-05-10T13:00:45;5.70;;;4.80;;
21245;SDS011;10781;50.928;4.440;2023-05-10T13:03:10;6.93;;;4.68;;
21245;SDS011;10781;50.928;4.440;2023-05-10T13:05:36;6.20;;;4.47;;
21245;SDS011;10781;50.928;4.440;2023-05-10T13:08:03;6.50;;;4.60;;
21245;SDS011;10781;50.928;4.440;2023-05-10T13:10:29;4.90;;;4.18;;
21245;SDS011;10781;50.928;4.440;2023-05-10T13:12:55;7.10;;;4.68;;
21245;SDS011;10781;50.928;4.440;2023-05-10T13:15:22;5.00;;;3.78;;
21245;SDS011;10781;50.928;4.440;2023-05-10T13:17:47;4.80;;;4.00;;
21245;SDS011;10781;50.928;4.440;2023-05-10T13:20:13;4.90;;;4.40;;
21245;SDS011;10781;50.928;4.440;2023-05-10T13:22:39;5.22;;;4.22;;
21245;SDS011;10781;50.928;4.440;2023-05-10T13:25:06;6.15;;;3.97;;
21245;SDS011;10781;50.928;4.440;2023-05-10T13:27:32;7.60;;;4.40;;
21245;SDS011;10781;50.928;4.440;2023-05-10T13:29:57;5.53;;;4.10;;
21245;SDS011;10781;50.928;4.440;2023-05-10T13:32:24;5.57;;;4.07;;
21245;SDS011;10781;50.928;4.440;2023-05-10T13:34:50;4.38;;;3.58;;
21245;SDS011;10781;50.928;4.440;2023-05-10T13:37:16;5.20;;;3.72;;
21245;SDS011;10781;50.928;4.440;2023-05-10T13:39:42;4.80;;;4.05;;
21245;SDS011;10781;50.928;4.440;2023-05-10T13:42:08;5.30;;;4.07;;
21245;SDS011;10781;50.928;4.440;2023-05-10T13:44:34;6.85;;;4.30;;
21245;SDS011;10781;50.928;4.440;2023-05-10T13:47:01;6.28;;;4.85;;
21245;SDS011;10781;50.928;4.440;2023-05-10T13:49:26;7.78;;;4.88;;
21245;SDS011;10781;50.928;4.440;2023-05-10T13:51:52;6.05;;;5.03;;
21245;SDS011;10781;50.928;4.440;2023-05-10T13:54:17;5.45;;;4.65;;
21245;SDS011;10781;50.928;4.440;2023-05-10T13:56:44;6.93;;;4.60;;
21245;SDS011;10781;50.928;4.440;2023-05-10T13:59:12;6.22;;;4.70;;
21245;SDS011;10781;50.928;4.440;2023-05-10T14:01:39;9.15;;;5.07;;
21245;SDS011;10781;50.928;4.440;2023-05-10T14:04:07;9.57;;;5.07;;
21245;SDS011;10781;50.928;4.440;2023-05-10T14:06:35;6.90;;;5.40;;
21245;SDS011;10781;50.928;4.440;2023-05-10T14:09:01;7.80;;;6.10;;
21245;SDS011;10781;50.928;4.440;2023-05-10T14:11:28;7.80;;;6.05;;
21245;SDS011;10781;50.928;4.440;2023-05-10T14:13:54;9.48;;;6.43;;
21245;SDS011;10781;50.928;4.440;2023-05-10T14:16:19;11.82;;;8.27;;
21245;SDS011;10781;50.928;4.440;2023-05-10T14:18:45;11.10;;;8.13;;
21245;SDS011;10781;50.928;4.440;2023-05-10T14:21:11;13.63;;;9.43;;
21245;SDS011;10781;50.928;4.440;2023-05-10T14:23:37;10.23;;;8.18;;
21245;SDS011;10781;50.928;4.440;2023-05-10T14:26:03;10.60;;;8.02;;
21245;SDS011;10781;50.928;4.440;2023-05-10T14:28:29;11.43;;;8.93;;
21245;SDS011;10781;50.928;4.440;2023-05-10T14:30:54;12.02;;;9.52;;
21245;SDS011;10781;50.928;4.440;2023-05-10T14:33:20;14.10;;;9.25;;
21245;SDS011;10781;50.928;4.440;2023-05-10T14:35:46;11.70;;;8.68;;
21245;SDS011;10781;50.928;4.440;2023-05-10T14:38:12;12.02;;;8.88;;
21245;SDS011;10781;50.928;4.440;2023-05-10T14:40:39;12.25;;;8.80;;
21245;SDS011;10781;50.928;4.440;2023-05-10T14:43:04;15.63;;;8.95;;
21245;SDS011;10781;50.928;4.440;2023-05-10T14:45:30;10.93;;;9.02;;
21245;SDS011;10781;50.928;4.440;2023-05-10T14:47:56;16.10;;;10.45;;
21245;SDS011;10781;50.928;4.440;2023-05-10T14:50:22;11.13;;;8.50;;
21245;SDS011;10781;50.928;4.440;2023-05-10T14:52:48;11.25;;;8.45;;
21245;SDS011;10781;50.928;4.440;2023-05-10T14:55:15;11.57;;;8.65;;
21245;SDS011;10781;50.928;4.440;2023-05-10T14:57:40;12.77;;;9.35;;
21245;SDS011;10781;50.928;4.440;2023-05-10T15:00:06;14.98;;;9.70;;
21245;SDS011;10781;50.928;4.440;2023-05-10T15:02:33;16.20;;;10.13;;
21245;SDS011;10781;50.928;4.440;2023-05-10T15:04:58;17.15;;;10.32;;
21245;SDS011;10781;50.928;4.440;2023-05-10T15:07:24;14.57;;;10.68;;
21245;SDS011;10781;50.928;4.440;2023-05-10T15:09:50;13.73;;;10.05;;
21245;SDS011;10781;50.928;4.440;2023-05-10T15:12:17;13.50;;;9.95;;
21245;SDS011;10781;50.928;4.440;2023-05-10T15:14:43;14.07;;;9.13;;